»·PEaware :: N973SE KOXR-KSBP

N973SE :: KOXR-KSBP

FLIGHT INFORMATION

Flight Status: Arrived
Operator: Privately registered:
United States
More flights under this callsign
Pilot: Stig E. (4778)
Aircraft: CESSNA 310
(C310)
More flights by this aircraft type
Origin: KOXR Oxnard
United States
Destination: KSBP San Luis Co Regl
United States
More flights between these airports :: More routes between these airports
Route: RZS FLW MISHI
File this flight plan on PilotEdge
Remarks: +CW /
Altitude:
(Current/Filed)
12,500ft
Speed:
(Current/Filed)
170kts
Departed: 06-Feb-19 10:47 PM
Arrived: 06-Feb-19 11:28 PM
Distance/Time
Traveled:
94nm/0:41
Distance/Time
To Go:
Arrived

Flight Plot

Page will automatically refresh every two minutes.

Flight plan parsing failed; only flown route is shown


Map Options




Map Legend


Flown Route
Filed Route
Departure Airport
Arrival Airport
Navaid (VOR, NDB)
Fix

Horizontal Profiles

Position Reports

Time Latitude Longitude Heading Altitude Ground
Speed
06-Feb-19 22:25 34.198709 -119.198193 88 45ft 0kts
06-Feb-19 22:26 34.198709 -119.198193 88 45ft 0kts
06-Feb-19 22:27 34.198709 -119.198193 88 45ft 0kts
06-Feb-19 22:28 34.198709 -119.198193 88 45ft 0kts
06-Feb-19 22:29 34.198709 -119.198193 88 45ft 0kts
06-Feb-19 22:30 34.198709 -119.198193 88 45ft 0kts
06-Feb-19 22:31 34.198709 -119.198193 88 45ft 0kts
06-Feb-19 22:32 34.198709 -119.198193 88 45ft 0kts
06-Feb-19 22:33 34.198709 -119.198193 88 45ft 0kts
06-Feb-19 22:34 34.198709 -119.198193 88 45ft 0kts
06-Feb-19 22:35 34.198709 -119.198193 88 45ft 0kts
06-Feb-19 22:36 34.198709 -119.198193 88 45ft 0kts
06-Feb-19 22:37 34.198709 -119.198193 88 45ft 0kts
06-Feb-19 22:38 34.198709 -119.198193 88 45ft 0kts
06-Feb-19 22:39 34.198709 -119.198193 88 45ft 0kts
06-Feb-19 22:40 34.198709 -119.198193 88 45ft 0kts
06-Feb-19 22:41 34.198709 -119.198193 88 45ft 0kts
06-Feb-19 22:42 34.198709 -119.198193 88 45ft 0kts
06-Feb-19 22:43 34.198941 -119.197990 354 45ft 4kts
06-Feb-19 22:44 34.199971 -119.197503 355 46ft 0kts
06-Feb-19 22:45 34.199972 -119.197503 355 46ft 0kts
06-Feb-19 22:46 34.200811 -119.207033 271 83ft 115kts
06-Feb-19 22:47 34.206981 -119.248828 328 1483ft 162kts
06-Feb-19 22:48 34.252670 -119.253556 358 2698ft 164kts
06-Feb-19 22:49 34.298205 -119.255402 358 3902ft 164kts
06-Feb-19 22:50 34.338271 -119.271407 296 5114ft 164kts
06-Feb-19 22:51 34.357199 -119.322216 294 6319ft 166kts
06-Feb-19 22:52 34.376144 -119.373506 294 7522ft 167kts
06-Feb-19 22:53 34.387757 -119.428497 282 8730ft 169kts
06-Feb-19 22:54 34.397692 -119.484473 282 9930ft 171kts
06-Feb-19 22:55 34.407813 -119.541443 282 11138ft 173kts
06-Feb-19 22:56 34.419191 -119.598357 293 12341ft 175kts
06-Feb-19 22:57 34.446827 -119.654656 303 12502ft 209kts
06-Feb-19 22:58 34.479617 -119.714638 303 12500ft 215kts
06-Feb-19 22:59 34.517465 -119.767980 344 12507ft 209kts
06-Feb-19 23:00 34.574748 -119.781316 351 12499ft 208kts
06-Feb-19 23:01 34.632061 -119.791203 352 12499ft 207kts
06-Feb-19 23:02 34.689227 -119.800528 352 12498ft 204kts
06-Feb-19 23:03 34.741735 -119.809048 352 11907ft 188kts
06-Feb-19 23:04 34.793493 -119.817419 352 11104ft 186kts
06-Feb-19 23:05 34.844743 -119.825717 352 10303ft 185kts
06-Feb-19 23:06 34.895740 -119.833984 352 9498ft 183kts
06-Feb-19 23:07 34.946438 -119.842213 352 8692ft 182kts
06-Feb-19 23:08 34.996704 -119.850382 352 7887ft 180kts
06-Feb-19 23:09 35.046583 -119.858498 352 7081ft 179kts
06-Feb-19 23:10 35.095285 -119.864074 333 6501ft 166kts
06-Feb-19 23:11 35.100788 -119.913048 267 6498ft 149kts
06-Feb-19 23:12 35.101189 -119.963335 272 6499ft 146kts
06-Feb-19 23:13 35.103796 -120.012974 274 6499ft 145kts
06-Feb-19 23:14 35.107053 -120.062834 274 6487ft 146kts
06-Feb-19 23:15 35.110736 -120.115608 274 5987ft 157kts
06-Feb-19 23:16 35.114506 -120.169663 274 5485ft 158kts
06-Feb-19 23:17 35.118254 -120.223756 274 4981ft 158kts
06-Feb-19 23:18 35.122058 -120.278949 274 4482ft 163kts
06-Feb-19 23:19 35.125862 -120.334560 274 3979ft 163kts
06-Feb-19 23:20 35.129607 -120.389702 274 3479ft 162kts
06-Feb-19 23:21 35.133315 -120.444667 274 2977ft 161kts
06-Feb-19 23:22 35.149468 -120.494620 305 2560ft 155kts
06-Feb-19 23:23 35.172708 -120.534545 305 2033ft 139kts
06-Feb-19 23:24 35.194532 -120.571467 312 1487ft 124kts
06-Feb-19 23:25 35.217246 -120.603773 308 687ft 125kts
06-Feb-19 23:26 35.233973 -120.635097 303 223ft 89kts
06-Feb-19 23:27 35.239876 -120.643449 131 216ft 15kts
06-Feb-19 23:28 35.238262 -120.639037 158 216ft 7kts
06-Feb-19 23:29 35.238026 -120.639018 182 216ft 0kts

Navigation Log

Ident Type
Flight plan parsing failed, navigation log unavailable